Time;durP1;ratioP1;P1;durP2;ratioP2;P2;SDS_P1;SDS_P2;PMS_P1;PMS_P2;Temp;Humidity;BMP_temperature;BMP_pressure;BME280_temperature;BME280_humidity;BME280_pressure;Samples;Min_cycle;Max_cycle;Signal;HPM_P1;HPM_P2
2024/01/31 00:02:14;;;;;;;6.47;3.90;;;;;;;3.88;41.82;100734.69;4991048;28;20042;-77
2024/01/31 00:04:40;;;;;;;7.63;4.03;;;;;;;3.87;41.84;100736.41;4974992;28;20046;-78
2024/01/31 00:07:05;;;;;;;6.72;4.10;;;;;;;3.86;41.72;100731.28;4955334;28;20054;-79
2024/01/31 00:09:31;;;;;;;5.85;3.72;;;;;;;3.79;41.83;100715.03;4975762;28;20038;-78
2024/01/31 00:11:57;;;;;;;6.07;3.55;;;;;;;3.75;41.68;100721.13;4959782;28;20050;-78
2024/01/31 00:14:22;;;;;;;5.80;3.53;;;;;;;3.73;41.70;100721.16;4965029;28;20042;-78
2024/01/31 00:16:48;;;;;;;6.38;3.75;;;;;;;3.78;41.55;100736.59;4979216;28;20042;-78
2024/01/31 00:19:13;;;;;;;7.32;3.40;;;;;;;3.79;41.68;100741.69;4978943;28;20030;-79
2024/01/31 00:21:39;;;;;;;5.50;3.58;;;;;;;3.72;41.98;100724.63;4978775;28;20409;-78
2024/01/31 00:24:05;;;;;;;8.73;3.88;;;;;;;3.73;41.84;100730.63;4978808;28;20038;-78
2024/01/31 00:26:31;;;;;;;7.53;4.00;;;;;;;3.77;41.67;100734.88;4978854;28;20034;-78
2024/01/31 00:28:56;;;;;;;6.45;3.42;;;;;;;3.70;41.81;100726.38;4995809;28;20049;-78
2024/01/31 00:31:22;;;;;;;6.60;3.50;;;;;;;3.73;41.80;100734.06;4962480;28;20088;-78
2024/01/31 00:33:47;;;;;;;7.53;3.90;;;;;;;3.71;41.48;100730.66;4995775;28;20049;-78
2024/01/31 00:36:14;;;;;;;6.88;3.70;;;;;;;3.72;41.88;100734.94;4978672;28;20039;-78
2024/01/31 00:38:40;;;;;;;7.10;3.75;;;;;;;3.71;41.78;100729.81;4947040;28;20034;-78
2024/01/31 00:41:06;;;;;;;6.07;3.45;;;;;;;3.63;41.53;100720.44;4996013;28;20045;-77
2024/01/31 00:43:32;;;;;;;8.13;3.50;;;;;;;3.61;41.95;100723.94;4995964;28;20055;-78
2024/01/31 00:45:57;;;;;;;5.07;3.50;;;;;;;3.60;41.65;100719.63;4978587;28;20525;-78
2024/01/31 00:48:23;;;;;;;9.40;3.90;;;;;;;3.66;41.92;100726.44;4978506;28;20026;-78
2024/01/31 00:50:48;;;;;;;6.82;4.10;;;;;;;3.65;41.48;100729.91;4962361;28;20054;-78
2024/01/31 00:53:14;;;;;;;5.85;3.50;;;;;;;3.57;41.89;100714.53;4978354;28;20062;-77
2024/01/31 00:55:39;;;;;;;6.47;3.63;;;;;;;3.63;41.69;100724.75;4962371;28;20046;-78
2024/01/31 00:58:05;;;;;;;8.00;4.00;;;;;;;3.63;41.89;100719.59;4978438;28;20050;-78
2024/01/31 01:00:30;;;;;;;5.90;3.60;;;;;;;3.61;41.68;100718.78;4995943;28;20061;-78
2024/01/31 01:02:55;;;;;;;7.18;4.15;;;;;;;3.59;41.81;100707.59;4978256;28;20038;-78
2024/01/31 01:05:21;;;;;;;6.40;3.95;;;;;;;3.60;41.79;100712.72;4978302;28;20494;-79
2024/01/31 01:07:46;;;;;;;6.05;3.65;;;;;;;3.54;41.61;100702.53;4962284;28;20038;-79
2024/01/31 01:10:12;;;;;;;6.45;4.20;;;;;;;3.54;41.79;100704.22;4962358;28;20073;-77
2024/01/31 01:12:38;;;;;;;6.35;3.42;;;;;;;3.55;41.69;100700.78;4977907;28;20038;-78
2024/01/31 01:15:04;;;;;;;6.68;4.05;;;;;;;3.57;42.06;100701.59;4978333;28;20379;-77
2024/01/31 01:17:30;;;;;;;6.80;4.20;;;;;;;3.55;42.04;100700.78;4961116;28;20045;-77
2024/01/31 01:19:55;;;;;;;6.07;3.78;;;;;;;3.59;41.59;100705.00;4977576;28;20042;-78
2024/01/31 01:22:21;;;;;;;8.30;4.10;;;;;;;3.54;41.79;100691.31;4978519;28;20057;-77
2024/01/31 01:24:46;;;;;;;7.18;3.92;;;;;;;3.57;42.06;100697.31;4978157;28;20030;-77
2024/01/31 01:27:12;;;;;;;6.15;3.80;;;;;;;3.55;41.65;100699.03;4995182;28;20121;-77
2024/01/31 01:29:37;;;;;;;6.30;3.83;;;;;;;3.54;41.72;100693.91;4976856;28;20057;-77
2024/01/31 01:32:03;;;;;;;5.45;3.30;;;;;;;3.48;41.99;100684.53;4995078;28;20058;-77
2024/01/31 01:34:28;;;;;;;5.97;3.45;;;;;;;3.52;41.59;100693.09;4961338;28;20043;-77
2024/01/31 01:36:54;;;;;;;7.28;4.03;;;;;;;3.50;41.87;100694.84;4961692;28;20110;-77
2024/01/31 01:39:19;;;;;;;7.53;4.00;;;;;;;3.45;41.88;100684.59;4977845;28;20478;-78
2024/01/31 01:41:51;;;;;;;5.78;3.83;;;;;;;3.49;42.06;100685.38;4977298;28;20038;-78
2024/01/31 01:44:16;;;;;;;5.18;3.33;;;;;;;3.48;42.08;100694.88;4977976;28;20078;-78
2024/01/31 01:46:42;;;;;;;7.05;4.05;;;;;;;3.40;41.93;100671.75;4977443;28;20061;-79
2024/01/31 01:49:08;;;;;;;5.20;3.47;;;;;;;3.47;41.86;100680.25;4977481;28;20034;-79
2024/01/31 01:51:33;;;;;;;7.50;4.30;;;;;;;3.48;41.72;100688.84;4961195;28;20133;-76
2024/01/31 01:53:59;;;;;;;6.35;3.45;;;;;;;3.48;41.47;100678.50;4977552;28;20046;-76
2024/01/31 01:56:24;;;;;;;5.63;3.60;;;;;;;3.48;41.79;100678.50;4961078;28;20474;-77
2024/01/31 01:58:51;;;;;;;5.15;3.25;;;;;;;3.46;41.36;100675.09;4945552;28;20034;-76
2024/01/31 02:01:16;;;;;;;5.50;3.67;;;;;;;3.45;41.46;100674.25;4960981;28;20466;-77
2024/01/31 02:03:43;;;;;;;5.93;3.75;;;;;;;3.46;41.70;100677.69;4976989;28;20073;-77
2024/01/31 02:06:08;;;;;;;6.30;3.75;;;;;;;3.39;41.86;100664.88;4961384;28;20479;-76
2024/01/31 02:08:34;;;;;;;7.40;3.80;;;;;;;3.43;41.89;100681.16;4945206;28;20074;-79
2024/01/31 02:10:59;;;;;;;6.10;3.75;;;;;;;3.42;41.75;100677.72;4994165;28;20409;-78
2024/01/31 02:13:25;;;;;;;6.15;3.45;;;;;;;3.42;41.56;100669.16;4994558;28;20043;-77
2024/01/31 02:15:56;;;;;;;5.70;3.72;;;;;;;3.34;42.09;100661.53;4960808;28;20501;-78
2024/01/31 02:18:23;;;;;;;4.88;3.25;;;;;;;3.39;41.65;100666.59;4960616;28;20070;-78
2024/01/31 02:20:49;;;;;;;5.55;3.25;;;;;;;3.34;42.24;100652.94;4976851;28;20034;-77
2024/01/31 02:23:15;;;;;;;6.10;3.47;;;;;;;3.38;41.88;100654.56;4944607;28;20493;-79
2024/01/31 02:25:41;;;;;;;5.30;3.38;;;;;;;3.34;41.97;100651.19;4959962;28;20484;-78
2024/01/31 02:28:06;;;;;;;6.53;3.50;;;;;;;3.34;42.06;100653.78;4994141;28;20045;-78
2024/01/31 02:30:31;;;;;;;6.40;3.30;;;;;;;3.33;42.22;100641.72;4993568;28;20041;-78
2024/01/31 02:32:57;;;;;;;5.40;3.47;;;;;;;3.35;42.11;100646.88;4959917;28;20465;-78
2024/01/31 02:35:26;;;;;;;5.40;3.15;;;;;;;3.30;42.10;100639.19;4976234;28;20038;-78
2024/01/31 02:37:51;;;;;;;;;;;;;;;3.32;42.22;100646.91;4976707;28;20077;-78
2024/01/31 02:40:17;;;;;;;5.15;3.03;;;;;;;3.28;42.21;100640.13;4976507;28;19952;-78
2024/01/31 02:42:43;;;;;;;5.90;3.35;;;;;;;3.28;42.14;100647.88;4960379;28;20096;-78
2024/01/31 02:45:08;;;;;;;4.95;3.17;;;;;;;3.23;42.28;100643.59;4960615;28;20065;-77
2024/01/31 02:47:34;;;;;;;7.15;3.25;;;;;;;3.22;42.30;100636.72;4960084;28;20092;-77
2024/01/31 02:50:03;;;;;;;5.85;3.70;;;;;;;3.19;42.35;100630.78;4993592;28;20042;-77
2024/01/31 02:52:29;;;;;;;7.32;3.85;;;;;;;3.19;41.85;100626.47;4944501;28;20046;-78
2024/01/31 02:54:54;;;;;;;5.68;3.33;;;;;;;3.24;42.18;100635.00;4960307;28;20485;-77
2024/01/31 02:57:20;;;;;;;5.55;3.50;;;;;;;3.24;41.96;100634.13;4960627;28;20043;-77
2024/01/31 02:59:45;;;;;;;6.85;3.40;;;;;;;3.25;42.30;100628.09;4993248;28;20470;-77
2024/01/31 03:02:13;;;;;;;5.50;3.38;;;;;;;3.21;41.97;100626.44;4975293;28;20046;-77
2024/01/31 03:04:39;;;;;;;5.57;3.08;;;;;;;3.25;41.94;100630.69;4959793;28;20042;-77
2024/01/31 03:07:04;;;;;;;5.40;3.38;;;;;;;3.25;41.88;100636.69;4976066;28;20557;-77
2024/01/31 03:09:30;;;;;;;5.80;3.63;;;;;;;3.26;41.90;100629.81;4993435;28;20038;-76
2024/01/31 03:11:56;;;;;;;5.18;3.30;;;;;;;3.19;42.04;100621.28;4975919;28;20038;-78
2024/01/31 03:14:21;;;;;;;6.50;4.00;;;;;;;3.20;41.86;100624.75;4959871;28;20414;-79
2024/01/31 03:16:47;;;;;;;6.70;3.40;;;;;;;3.19;42.08;100620.44;4960196;28;20038;-76
2024/01/31 03:19:13;;;;;;;5.38;3.50;;;;;;;3.25;41.86;100628.09;4975853;28;20034;-77
2024/01/31 03:21:38;;;;;;;5.78;3.65;;;;;;;3.26;41.94;100622.06;4992995;28;20042;-78
2024/01/31 03:24:04;;;;;;;5.57;3.40;;;;;;;3.23;42.10;100625.53;4975425;28;20046;-78
2024/01/31 03:26:30;;;;;;;5.97;3.45;;;;;;;3.25;41.86;100625.53;4975721;28;20038;-76
2024/01/31 03:28:55;;;;;;;5.15;3.47;;;;;;;3.21;41.75;100616.09;4959730;28;20387;-77
2024/01/31 03:31:21;;;;;;;6.50;3.70;;;;;;;3.22;41.56;100618.66;4975393;28;20066;-76
2024/01/31 03:33:46;;;;;;;6.68;3.65;;;;;;;3.20;42.11;100615.25;4959284;28;20131;-77
2024/01/31 03:36:12;;;;;;;6.88;3.80;;;;;;;3.21;41.93;100618.69;4971163;28;20058;-77
2024/01/31 03:38:38;;;;;;;7.28;3.53;;;;;;;3.20;41.81;100614.44;4941889;28;20070;-79
2024/01/31 03:41:05;;;;;;;5.78;3.50;;;;;;;3.14;42.06;100599.88;4924258;28;20046;-79
2024/01/31 03:43:30;;;;;;;6.50;3.75;;;;;;;3.12;42.05;100601.63;4940273;28;20050;-76
2024/01/31 03:45:56;;;;;;;6.95;3.67;;;;;;;3.16;41.64;100610.19;4942211;28;20507;-77
2024/01/31 03:48:21;;;;;;;6.57;3.58;;;;;;;3.10;41.97;100605.09;4991849;28;20093;-77
2024/01/31 03:50:47;;;;;;;6.40;4.03;;;;;;;3.15;41.80;100618.81;4977811;28;20097;-79
2024/01/31 03:53:12;;;;;;;7.05;4.20;;;;;;;3.12;42.13;100609.38;4993006;28;20046;-77
2024/01/31 03:55:39;;;;;;;6.22;3.92;;;;;;;3.12;41.98;100614.53;4994129;28;20038;-78
2024/01/31 03:58:04;;;;;;;5.95;3.67;;;;;;;3.12;42.08;100613.69;4993179;28;20045;-78
2024/01/31 04:00:30;;;;;;;6.85;4.07;;;;;;;3.07;41.84;100609.44;4993304;28;20046;-78
2024/01/31 04:02:55;;;;;;;6.82;3.42;;;;;;;3.04;42.06;100600.91;4977739;28;20044;-78
2024/01/31 04:05:21;;;;;;;5.78;3.72;;;;;;;3.10;41.98;100612.84;4977441;28;20060;-78
2024/01/31 04:07:46;;;;;;;6.28;3.92;;;;;;;3.02;41.68;100605.22;4994321;28;20038;-78
2024/01/31 04:10:12;;;;;;;6.90;4.30;;;;;;;3.00;42.34;100602.66;4993878;28;20100;-77
2024/01/31 04:12:38;;;;;;;5.72;3.78;;;;;;;3.02;42.18;100605.22;4978156;28;20577;-79
2024/01/31 04:15:04;;;;;;;7.38;4.50;;;;;;;2.99;42.31;100603.56;4978549;28;20145;-79
2024/01/31 04:17:29;;;;;;;7.18;4.32;;;;;;;2.98;41.76;100608.75;4994572;28;20033;-78
2024/01/31 04:19:54;;;;;;;7.38;4.32;;;;;;;3.03;42.18;100618.09;4994116;28;20046;-78
2024/01/31 04:22:20;;;;;;;7.32;4.28;;;;;;;3.00;42.24;100620.72;4993635;28;20042;-78
2024/01/31 04:24:45;;;;;;;6.63;4.15;;;;;;;3.00;42.15;100612.97;5011714;28;20038;-78
2024/01/31 04:27:11;;;;;;;5.85;3.58;;;;;;;2.95;42.20;100603.63;5011993;28;20157;-78
2024/01/31 04:29:42;;;;;;;8.43;4.15;;;;;;;3.00;42.09;100619.88;4978165;28;20046;-79
2024/01/31 04:32:08;;;;;;;6.57;4.10;;;;;;;2.97;41.81;100614.75;4992220;28;20113;-79
2024/01/31 04:34:36;;;;;;;6.28;3.47;;;;;;;2.99;41.93;100620.75;4992770;28;20050;-79
2024/01/31 04:37:02;;;;;;;6.30;3.95;;;;;;;2.93;41.75;100608.81;4954305;28;20132;-79
2024/01/31 04:39:27;;;;;;;6.40;3.85;;;;;;;2.96;42.29;100613.94;4986660;28;20458;-79
2024/01/31 04:41:53;;;;;;;6.60;3.75;;;;;;;2.96;42.24;100613.06;5007432;28;20458;-80
2024/01/31 04:44:18;;;;;;;11.75;4.65;;;;;;;2.96;41.94;100613.06;4983594;28;20045;-80
2024/01/31 04:46:45;;;;;;;5.35;3.47;;;;;;;2.90;41.96;100606.28;4958368;28;20513;-79
2024/01/31 04:49:10;;;;;;;7.35;3.70;;;;;;;2.94;42.15;100614.81;4961139;28;20116;-79
2024/01/31 04:51:40;;;;;;;5.47;3.70;;;;;;;2.94;41.81;100613.09;4974852;28;20129;-75
2024/01/31 04:54:06;;;;;;;5.65;3.60;;;;;;;2.94;41.85;100614.81;4970823;28;20030;-77
2024/01/31 04:56:31;;;;;;;11.30;4.60;;;;;;;2.92;42.17;100625.16;4997377;28;20552;-79
2024/01/31 04:58:57;;;;;;;17.85;2.65;;;;;;;3.41;64.74;100626.97;5002907;28;20040;-82
2024/01/31 05:01:22;;;;;;;9.15;3.15;;;;;;;3.75;64.82;100621.22;5002988;28;20049;-78
2024/01/31 05:03:47;;;;;;;8.07;2.83;;;;;;;3.92;66.03;100620.94;4997124;28;20041;-80
2024/01/31 05:06:13;;;;;;;7.53;4.78;;;;;;;4.26;66.68;100633.19;4997330;28;20060;-79
2024/01/31 05:08:38;;;;;;;23.75;7.40;;;;;;;4.16;60.86;100624.78;4998000;28;20065;-85
2024/01/31 05:11:04;;;;;;;10.50;4.95;;;;;;;4.27;64.86;100632.31;5016651;28;20050;-82
2024/01/31 05:13:29;;;;;;;19.23;5.47;;;;;;;4.37;64.40;100617.47;4965895;28;20121;-85
2024/01/31 05:15:55;;;;;;;12.85;6.85;;;;;;;4.31;59.52;100618.44;4970831;28;20401;-82
2024/01/31 05:18:20;;;;;;;12.43;6.40;;;;;;;4.12;58.86;100610.19;4981861;28;20069;-83
2024/01/31 05:20:46;;;;;;;9.95;6.53;;;;;;;4.00;57.78;100625.97;4986466;28;20038;-92
2024/01/31 05:23:11;;;;;;;10.95;6.13;;;;;;;4.10;61.04;100632.63;5000948;28;20045;-88
2024/01/31 05:25:37;;;;;;;12.73;6.20;;;;;;;4.04;58.72;100629.34;4997537;28;20125;-82
2024/01/31 05:28:03;;;;;;;12.40;6.65;;;;;;;3.91;57.77;100634.72;4981268;28;20038;-80
2024/01/31 05:30:29;;;;;;;10.65;6.18;;;;;;;3.78;56.71;100635.84;4980617;28;20070;-79
2024/01/31 05:32:54;;;;;;;12.68;6.60;;;;;;;3.65;56.18;100642.91;4994841;28;20046;-81
2024/01/31 05:35:20;;;;;;;10.00;6.22;;;;;;;3.55;55.75;100642.22;4963115;28;20410;-81
2024/01/31 05:37:46;;;;;;;13.05;6.15;;;;;;;3.46;56.31;100634.63;4976942;28;20481;-77
2024/01/31 05:40:16;;;;;;;14.05;5.88;;;;;;;3.65;61.04;100632.59;4977792;28;20069;-78
2024/01/31 05:42:42;;;;;;;8.13;5.30;;;;;;;3.69;58.91;100647.16;4962801;28;20038;-79
2024/01/31 05:45:08;;;;;;;9.55;5.90;;;;;;;3.69;58.12;100641.16;4993931;28;20062;-82
2024/01/31 05:47:34;;;;;;;10.15;6.00;;;;;;;3.73;57.05;100651.41;4994768;28;20053;-80
2024/01/31 05:49:59;;;;;;;9.77;5.47;;;;;;;3.78;56.22;100651.34;4977570;28;20033;-81
2024/01/31 05:52:25;;;;;;;8.63;5.63;;;;;;;3.85;54.96;100649.50;4977263;28;20513;-82
2024/01/31 05:54:50;;;;;;;11.02;5.95;;;;;;;3.91;54.04;100644.22;4976200;28;20054;-93
2024/01/31 05:57:16;;;;;;;10.40;5.82;;;;;;;4.06;52.98;100651.66;4929873;28;20046;-84
2024/01/31 05:59:42;;;;;;;12.13;5.85;;;;;;;4.16;52.05;100640.28;4975043;28;20042;-80
2024/01/31 06:02:07;;;;;;;12.60;5.70;;;;;;;4.35;50.98;100638.19;4956948;28;20514;-84
2024/01/31 06:04:33;;;;;;;6.88;4.65;;;;;;;4.66;49.60;100640.13;4955778;28;20125;-80
2024/01/31 06:06:58;;;;;;;10.05;5.95;;;;;;;5.03;48.29;100644.50;4955412;28;20102;-81
2024/01/31 06:09:24;;;;;;;9.90;5.15;;;;;;;5.46;47.19;100640.03;4939778;28;20478;-82
2024/01/31 06:11:49;;;;;;;8.57;5.20;;;;;;;6.00;45.52;100645.63;4940282;28;20043;-83
2024/01/31 06:14:15;;;;;;;8.43;5.53;;;;;;;6.59;43.50;100639.63;4957433;28;20414;-84
2024/01/31 06:16:41;;;;;;;9.13;5.72;;;;;;;7.29;42.48;100648.75;4941763;28;20039;-84
2024/01/31 06:19:08;;;;;;;8.52;5.25;;;;;;;7.94;41.22;100642.25;4942202;28;20391;-82
2024/01/31 06:21:34;;;;;;;9.60;5.30;;;;;;;8.56;39.49;100633.09;4974726;28;20042;-83
2024/01/31 06:23:59;;;;;;;9.32;5.32;;;;;;;9.27;38.04;100643.38;4973545;28;20045;-83
2024/01/31 06:26:28;;;;;;;8.70;5.22;;;;;;;9.95;36.81;100644.00;4940812;28;20041;-83
2024/01/31 06:28:53;;;;;;;8.75;5.35;;;;;;;10.66;35.43;100647.88;4957918;28;20406;-83
2024/01/31 06:31:27;;;;;;;7.68;5.50;;;;;;;11.41;33.67;100638.22;4957466;28;20031;-84
2024/01/31 06:33:53;;;;;;;8.15;5.53;;;;;;;12.30;31.56;100646.78;4942143;28;20491;-85
2024/01/31 06:36:19;;;;;;;11.52;6.30;;;;;;;13.13;30.33;100636.16;4973144;28;20035;-84
2024/01/31 06:38:46;;;;;;;8.93;5.32;;;;;;;14.07;28.59;100635.09;4941287;28;20039;-83
2024/01/31 06:41:15;;;;;;;9.10;5.32;;;;;;;15.07;26.78;100636.78;4957365;28;20058;-85
2024/01/31 06:43:40;;;;;;;9.70;6.10;;;;;;;16.05;25.04;100647.81;4974470;28;20034;-84
2024/01/31 06:46:06;;;;;;;11.43;6.10;;;;;;;17.00;23.83;100636.81;4973368;28;20121;-84
2024/01/31 06:48:31;;;;;;;12.40;7.50;;;;;;;17.86;22.35;100630.34;4974499;28;20042;-84
2024/01/31 06:50:57;;;;;;;11.93;7.13;;;;;;;18.72;21.11;100646.63;4941130;28;20511;-83
2024/01/31 06:53:22;;;;;;;14.70;6.85;;;;;;;19.65;20.39;100642.53;4974364;28;20035;-82
2024/01/31 06:55:48;;;;;;;11.77;7.15;;;;;;;20.53;19.13;100647.47;4957429;28;20118;-83
2024/01/31 06:58:13;;;;;;;11.82;6.93;;;;;;;21.38;18.00;100642.56;4925489;28;20751;-84
2024/01/31 07:00:39;;;;;;;15.57;6.70;;;;;;;22.18;17.39;100651.94;4956101;28;20479;-83
2024/01/31 07:03:04;;;;;;;16.45;7.32;;;;;;;22.99;16.72;100646.94;4940682;28;20132;-82
2024/01/31 07:05:30;;;;;;;12.15;6.65;;;;;;;23.64;16.12;100652.88;4975394;28;20079;-85
2024/01/31 07:07:55;;;;;;;10.05;6.18;;;;;;;24.29;15.37;100650.75;4942164;28;20184;-81
2024/01/31 07:10:21;;;;;;;13.75;6.82;;;;;;;25.08;15.01;100646.00;4973604;28;20074;-82
2024/01/31 07:12:46;;;;;;;10.10;6.53;;;;;;;25.70;13.98;100644.72;4956893;28;20510;-81
2024/01/31 07:15:12;;;;;;;10.50;5.82;;;;;;;26.28;13.50;100645.41;4973941;28;20050;-81
2024/01/31 07:17:37;;;;;;;12.43;5.47;;;;;;;26.64;13.06;100637.72;4974091;28;20034;-81
2024/01/31 07:20:04;;;;;;;8.02;5.10;;;;;;;26.82;12.91;100642.84;4924610;28;20042;-81
2024/01/31 07:22:29;;;;;;;10.68;4.50;;;;;;;26.78;12.99;100633.50;4940292;28;20039;-81
2024/01/31 07:24:54;;;;;;;5.25;4.07;;;;;;;26.63;13.14;100643.25;4957605;28;20105;-83
2024/01/31 07:27:20;;;;;;;6.80;4.40;;;;;;;26.16;13.12;100637.78;4925396;28;20182;-80
2024/01/31 07:29:48;;;;;;;6.25;4.50;;;;;;;25.58;13.41;100626.34;4973728;28;20042;-82
2024/01/31 07:32:14;;;;;;;6.47;4.43;;;;;;;25.01;14.05;100639.66;4957309;28;20038;-81
2024/01/31 07:34:39;;;;;;;6.15;4.65;;;;;;;24.48;14.44;100630.97;4974096;28;20039;-82
2024/01/31 07:37:05;;;;;;;6.65;4.13;;;;;;;24.05;14.74;100628.31;4956165;28;20454;-83
2024/01/31 07:39:31;;;;;;;7.78;4.63;;;;;;;23.81;15.15;100628.97;4940296;28;20047;-81
2024/01/31 07:41:57;;;;;;;6.57;4.30;;;;;;;23.61;15.24;100628.31;4956139;28;20138;-81
2024/01/31 07:44:22;;;;;;;6.65;4.35;;;;;;;23.39;15.31;100619.00;4956432;28;20474;-81
2024/01/31 07:46:47;;;;;;;6.50;4.30;;;;;;;23.25;15.33;100620.41;4955229;28;20035;-81
2024/01/31 07:49:13;;;;;;;6.40;4.22;;;;;;;23.01;15.38;100613.00;4957141;28;20047;-81
2024/01/31 07:51:42;;;;;;;9.40;4.75;;;;;;;22.92;15.83;100622.75;4940261;28;20521;-83
2024/01/31 07:54:08;;;;;;;7.32;4.13;;;;;;;22.77;16.02;100620.59;4955865;28;20042;-80
2024/01/31 07:56:33;;;;;;;6.18;4.38;;;;;;;22.75;15.76;100611.06;4956144;28;20042;-79
2024/01/31 07:58:59;;;;;;;6.80;4.18;;;;;;;22.81;16.02;100609.66;4956550;28;20097;-83
2024/01/31 08:01:24;;;;;;;6.45;3.75;;;;;;;22.89;16.04;100612.38;4939771;28;20558;-83
2024/01/31 08:03:50;;;;;;;8.15;4.38;;;;;;;22.97;16.02;100612.47;4939721;28;20047;-83
2024/01/31 08:06:15;;;;;;;6.20;4.10;;;;;;;23.12;15.82;100613.63;4972930;28;20502;-84
2024/01/31 08:08:45;;;;;;;7.35;3.92;;;;;;;23.25;15.70;100610.59;4940117;28;20097;-83
2024/01/31 08:11:11;;;;;;;6.57;3.85;;;;;;;23.43;15.58;100612.38;4940993;28;20487;-84
2024/01/31 08:13:36;;;;;;;4.45;3.03;;;;;;;23.52;15.28;100610.63;4940105;28;20058;-84
2024/01/31 08:16:02;;;;;;;4.85;3.08;;;;;;;23.64;15.52;100617.34;4940188;28;20031;-84
2024/01/31 08:18:27;;;;;;;4.63;3.40;;;;;;;23.72;15.24;100605.91;4973317;28;20106;-84
2024/01/31 08:20:52;;;;;;;6.40;3.20;;;;;;;23.83;15.07;100606.53;4956390;28;20049;-85
2024/01/31 08:23:18;;;;;;;4.50;3.10;;;;;;;23.94;15.14;100599.22;4973326;28;20352;-85
2024/01/31 08:25:43;;;;;;;4.43;3.13;;;;;;;24.08;15.06;100609.31;4956287;28;20042;-82
2024/01/31 08:28:09;;;;;;;4.45;3.13;;;;;;;24.17;14.79;100610.19;4955936;28;20447;-84
2024/01/31 08:30:34;;;;;;;3.40;2.53;;;;;;;24.20;14.99;100604.53;4926391;28;20046;-82
2024/01/31 08:33:00;;;;;;;4.10;2.80;;;;;;;24.22;14.97;100610.53;4976672;28;20046;-82
2024/01/31 08:35:25;;;;;;;4.18;2.67;;;;;;;24.26;15.00;100608.38;4976838;28;20501;-83
2024/01/31 08:37:51;;;;;;;5.68;2.72;;;;;;;24.33;14.69;100612.91;4944251;28;20038;-85
2024/01/31 08:40:17;;;;;;;4.05;2.70;;;;;;;24.41;14.73;100608.63;4944050;28;20066;-85
2024/01/31 08:42:42;;;;;;;3.65;2.88;;;;;;;24.39;15.00;100604.28;4974905;28;20046;-83
2024/01/31 08:45:09;;;;;;;5.22;3.10;;;;;;;24.49;14.66;100595.28;4976894;28;20434;-81
2024/01/31 08:47:35;;;;;;;4.38;2.85;;;;;;;24.59;14.80;100595.19;4927316;28;20126;-81
2024/01/31 08:50:01;;;;;;;4.90;2.65;;;;;;;24.68;14.75;100596.88;4959277;28;20422;-83
2024/01/31 08:52:26;;;;;;;4.10;2.80;;;;;;;24.78;14.65;100599.41;4958607;28;20050;-82
2024/01/31 08:54:52;;;;;;;6.43;2.92;;;;;;;24.81;14.84;100596.41;4959017;28;20039;-83
2024/01/31 08:57:17;;;;;;;4.85;2.97;;;;;;;24.86;14.70;100589.56;4942977;28;20085;-82
2024/01/31 08:59:43;;;;;;;5.35;3.10;;;;;;;24.88;14.67;100584.88;4976524;28;20045;-83
2024/01/31 09:02:08;;;;;;;4.57;3.17;;;;;;;24.85;14.10;100581.72;4943187;28;20043;-83
2024/01/31 09:04:35;;;;;;;8.00;3.40;;;;;;;24.91;14.36;100579.22;4943250;28;20411;-83
2024/01/31 09:07:00;;;;;;;6.60;3.22;;;;;;;24.91;14.05;100581.88;4976229;28;20078;-86
2024/01/31 09:09:26;;;;;;;6.65;3.50;;;;;;;24.73;14.49;100571.38;4926803;28;20066;-83
2024/01/31 09:11:52;;;;;;;5.35;3.20;;;;;;;24.91;14.23;100576.53;4927955;28;20074;-84
2024/01/31 09:14:17;;;;;;;4.75;3.50;;;;;;;24.99;14.32;100569.56;4976439;28;20129;-83
2024/01/31 09:16:43;;;;;;;4.50;3.33;;;;;;;25.16;13.97;100576.56;4958229;28;20034;-84
2024/01/31 09:19:09;;;;;;;5.35;3.30;;;;;;;25.35;14.21;100558.53;4958238;28;20414;-85
2024/01/31 09:21:35;;;;;;;4.55;3.22;;;;;;;25.52;13.90;100570.84;4959142;28;20128;-82
2024/01/31 09:24:00;;;;;;;4.90;3.20;;;;;;;25.67;13.87;100560.31;4943467;28;20129;-84
2024/01/31 09:26:26;;;;;;;5.65;3.35;;;;;;;26.25;12.67;100560.97;4959321;28;20451;-82
2024/01/31 09:28:51;;;;;;;5.50;3.20;;;;;;;27.12;12.51;100559.03;4942744;28;20070;-84
2024/01/31 09:31:21;;;;;;;7.07;3.22;;;;;;;28.09;11.94;100560.94;4959039;28;20038;-86
2024/01/31 09:33:48;;;;;;;4.35;3.42;;;;;;;28.93;11.26;100552.34;4959260;28;20035;-84
2024/01/31 09:36:14;;;;;;;6.07;3.50;;;;;;;29.76;10.86;100551.69;4927004;28;20131;-84
2024/01/31 09:38:39;;;;;;;5.32;3.28;;;;;;;29.91;10.76;100551.63;4959101;28;20042;-82
2024/01/31 09:41:05;;;;;;;5.15;3.65;;;;;;;29.23;11.12;100539.56;4977980;28;20039;-83
2024/01/31 09:43:31;;;;;;;4.00;3.28;;;;;;;28.21;11.48;100546.00;4976806;28;20045;-84
2024/01/31 09:45:56;;;;;;;5.20;3.55;;;;;;;27.13;11.82;100526.69;4975534;28;20447;-83
2024/01/31 09:48:23;;;;;;;5.15;3.72;;;;;;;26.50;12.35;100532.22;4958958;28;20054;-85
2024/01/31 09:50:48;;;;;;;5.55;3.95;;;;;;;26.21;12.39;100526.69;4946557;28;20046;-84
2024/01/31 09:53:14;;;;;;;6.45;4.20;;;;;;;26.00;12.66;100525.47;4995551;28;20092;-84
2024/01/31 09:55:39;;;;;;;5.85;4.10;;;;;;;26.26;12.46;100529.66;4961744;28;20046;-84
2024/01/31 09:58:05;;;;;;;11.43;4.28;;;;;;;26.95;11.55;100523.53;4994986;28;20034;-86
2024/01/31 10:00:31;;;;;;;4.75;3.90;;;;;;;27.36;11.66;100507.09;4994825;28;20049;-84
2024/01/31 10:02:56;;;;;;;6.95;3.70;;;;;;;27.74;11.47;100523.09;4977881;28;20486;-83
2024/01/31 10:05:22;;;;;;;4.55;3.60;;;;;;;27.59;11.60;100509.66;4961230;28;20125;-84
2024/01/31 10:07:47;;;;;;;6.45;3.30;;;;;;;27.26;11.77;100518.88;4994823;28;20081;-83
2024/01/31 10:10:13;;;;;;;6.25;3.65;;;;;;;27.14;11.98;100498.91;4961311;28;20085;-84
2024/01/31 10:12:38;;;;;;;5.32;3.20;;;;;;;27.06;12.06;100489.09;4977470;28;20045;-84
2024/01/31 10:15:09;;;;;;;4.68;3.30;;;;;;;26.91;12.02;100493.56;4977913;28;20050;-83
2024/01/31 10:17:34;;;;;;;6.43;3.70;;;;;;;26.65;12.32;100489.44;4977469;28;20490;-84
2024/01/31 10:20:04;;;;;;;5.50;3.70;;;;;;;26.42;11.99;100489.41;4976638;28;20049;-84
2024/01/31 10:22:31;;;;;;;4.95;3.17;;;;;;;25.97;12.96;100483.00;4994004;28;20144;-83
2024/01/31 10:24:56;;;;;;;4.35;2.95;;;;;;;25.80;12.83;100485.69;4977778;28;20409;-82
2024/01/31 10:27:22;;;;;;;4.88;3.50;;;;;;;25.52;13.00;100479.13;4961444;28;20035;-84
2024/01/31 10:29:48;;;;;;;7.15;3.38;;;;;;;25.38;13.25;100475.31;4976673;28;20526;-85
2024/01/31 10:32:15;;;;;;;12.35;3.60;;;;;;;25.19;13.28;100476.50;4961044;28;20042;-82
2024/01/31 10:34:41;;;;;;;5.38;3.85;;;;;;;24.98;13.72;100474.38;4961250;28;20038;-82
2024/01/31 10:37:07;;;;;;;6.32;3.80;;;;;;;24.55;13.75;100470.00;4976942;28;20050;-82
2024/01/31 10:39:32;;;;;;;5.10;3.28;;;;;;;24.38;13.94;100471.84;4961029;28;20042;-82
2024/01/31 10:41:59;;;;;;;5.85;3.60;;;;;;;24.00;14.06;100463.44;4945188;28;20124;-85
2024/01/31 10:44:24;;;;;;;4.53;3.72;;;;;;;23.32;14.34;100466.91;4977749;28;20038;-81
2024/01/31 10:46:50;;;;;;;6.47;4.00;;;;;;;23.05;14.51;100462.56;4960514;28;20038;-82
2024/01/31 10:49:18;;;;;;;5.57;3.85;;;;;;;22.80;14.96;100451.72;4976538;28;20034;-84
2024/01/31 10:51:47;;;;;;;9.00;4.15;;;;;;;22.52;14.99;100459.00;4976616;28;20065;-81
2024/01/31 10:54:12;;;;;;;6.32;4.10;;;;;;;22.33;15.18;100439.53;4976765;28;20096;-82
2024/01/31 10:56:38;;;;;;;5.78;4.20;;;;;;;22.32;15.39;100455.66;4960402;28;20208;-82
2024/01/31 10:59:05;;;;;;;7.78;4.38;;;;;;;22.29;15.56;100440.78;4944280;28;20045;-81
2024/01/31 11:01:31;;;;;;;6.80;4.40;;;;;;;22.12;15.63;100429.13;4944324;28;20101;-81
2024/01/31 11:03:56;;;;;;;7.55;4.00;;;;;;;21.94;15.87;100436.28;4944182;28;20042;-82
2024/01/31 11:06:25;;;;;;;9.13;3.80;;;;;;;21.79;15.94;100442.09;4960300;28;20058;-83
2024/01/31 11:08:51;;;;;;;7.45;3.90;;;;;;;21.56;16.44;100440.81;4976680;28;20046;-81
2024/01/31 11:11:20;;;;;;;6.03;3.70;;;;;;;21.24;16.34;100434.88;4944161;28;20046;-81
2024/01/31 11:13:45;;;;;;;5.88;3.53;;;;;;;21.04;16.77;100434.09;4960901;28;20050;-82
2024/01/31 11:16:11;;;;;;;5.38;3.47;;;;;;;20.80;16.70;100428.44;4960110;28;20046;-80
2024/01/31 11:18:36;;;;;;;6.63;4.03;;;;;;;20.69;16.87;100434.72;4959577;28;20149;-84
2024/01/31 11:21:10;;;;;;;9.13;4.00;;;;;;;20.43;16.99;100425.47;4960138;28;20069;-81
2024/01/31 11:23:35;;;;;;;5.35;3.63;;;;;;;20.30;17.12;100424.91;4963002;28;20042;-80